< < Back
Terminal Aerodrome Forecast


Current Version              Previous Versions:   1  2  3  4  5  6  7  8  9  

Terminal Aerodrome Forecast

406
FTUS42 KTAE 310500
TAFABY
TAF
KABY 310520Z 3106/0106 02003KT P6SM BKN250
     FM311500 09006KT P6SM SCT250=



Latest METAR

738
SAUS70 KWBC 010000 RRN
MTRABY
METAR KABY 312353Z 00000KT 10SM CLR 10/01 A3031 RMK AO2 SLP265 T01000006
10167 20094 53002


USA.gov is the U.S. government's official web portal to all federal, state and local government web resources and services.